sensor_id;sensor_type;location;lat;lon;timestamp;P1;durP1;ratioP1;P2;durP2;ratioP2
5285;SDS011;2665;53.112;7.358;2023-11-21T00:01:04;15.47;;;4.20;;
5285;SDS011;2665;53.112;7.358;2023-11-21T00:03:30;16.63;;;5.77;;
5285;SDS011;2665;53.112;7.358;2023-11-21T00:05:56;12.83;;;4.83;;
5285;SDS011;2665;53.112;7.358;2023-11-21T00:08:22;9.97;;;4.33;;
5285;SDS011;2665;53.112;7.358;2023-11-21T00:10:48;14.97;;;4.57;;
5285;SDS011;2665;53.112;7.358;2023-11-21T00:13:16;14.13;;;5.23;;
5285;SDS011;2665;53.112;7.358;2023-11-21T00:15:42;16.67;;;5.07;;
5285;SDS011;2665;53.112;7.358;2023-11-21T00:18:09;13.03;;;5.60;;
5285;SDS011;2665;53.112;7.358;2023-11-21T00:20:35;14.57;;;5.97;;
5285;SDS011;2665;53.112;7.358;2023-11-21T00:23:01;14.00;;;6.37;;
5285;SDS011;2665;53.112;7.358;2023-11-21T00:25:27;10.77;;;5.97;;
5285;SDS011;2665;53.112;7.358;2023-11-21T00:27:53;17.47;;;6.00;;
5285;SDS011;2665;53.112;7.358;2023-11-21T00:30:19;16.17;;;6.10;;
5285;SDS011;2665;53.112;7.358;2023-11-21T00:32:47;16.80;;;5.47;;
5285;SDS011;2665;53.112;7.358;2023-11-21T00:35:13;12.50;;;5.90;;
5285;SDS011;2665;53.112;7.358;2023-11-21T00:37:39;12.40;;;5.90;;
5285;SDS011;2665;53.112;7.358;2023-11-21T00:40:05;11.43;;;5.60;;
5285;SDS011;2665;53.112;7.358;2023-11-21T00:42:32;11.70;;;5.00;;
5285;SDS011;2665;53.112;7.358;2023-11-21T00:44:59;13.83;;;6.20;;
5285;SDS011;2665;53.112;7.358;2023-11-21T00:47:25;12.20;;;5.33;;
5285;SDS011;2665;53.112;7.358;2023-11-21T00:49:51;11.30;;;6.40;;
5285;SDS011;2665;53.112;7.358;2023-11-21T00:52:17;10.33;;;5.30;;
5285;SDS011;2665;53.112;7.358;2023-11-21T00:54:44;17.03;;;6.40;;
5285;SDS011;2665;53.112;7.358;2023-11-21T00:57:10;10.90;;;5.33;;
5285;SDS011;2665;53.112;7.358;2023-11-21T00:59:38;15.23;;;6.67;;
5285;SDS011;2665;53.112;7.358;2023-11-21T01:02:04;18.30;;;6.00;;
5285;SDS011;2665;53.112;7.358;2023-11-21T01:04:30;12.37;;;6.30;;
5285;SDS011;2665;53.112;7.358;2023-11-21T01:06:57;19.80;;;6.17;;
5285;SDS011;2665;53.112;7.358;2023-11-21T01:09:23;10.47;;;6.03;;
5285;SDS011;2665;53.112;7.358;2023-11-21T01:11:50;12.77;;;5.80;;
5285;SDS011;2665;53.112;7.358;2023-11-21T01:14:17;15.33;;;6.10;;
5285;SDS011;2665;53.112;7.358;2023-11-21T01:16:43;9.10;;;5.20;;
5285;SDS011;2665;53.112;7.358;2023-11-21T01:19:09;12.60;;;5.00;;
5285;SDS011;2665;53.112;7.358;2023-11-21T01:21:35;20.17;;;6.70;;
5285;SDS011;2665;53.112;7.358;2023-11-21T01:24:01;16.47;;;5.53;;
5285;SDS011;2665;53.112;7.358;2023-11-21T01:26:27;15.33;;;6.60;;
5285;SDS011;2665;53.112;7.358;2023-11-21T01:28:53;10.50;;;5.20;;
5285;SDS011;2665;53.112;7.358;2023-11-21T01:31:19;13.13;;;5.80;;
5285;SDS011;2665;53.112;7.358;2023-11-21T01:33:45;12.73;;;5.00;;
5285;SDS011;2665;53.112;7.358;2023-11-21T01:36:12;15.30;;;6.30;;
5285;SDS011;2665;53.112;7.358;2023-11-21T01:38:38;16.10;;;6.57;;
5285;SDS011;2665;53.112;7.358;2023-11-21T01:41:04;16.23;;;6.50;;
5285;SDS011;2665;53.112;7.358;2023-11-21T01:43:31;11.57;;;6.83;;
5285;SDS011;2665;53.112;7.358;2023-11-21T01:45:57;26.10;;;7.67;;
5285;SDS011;2665;53.112;7.358;2023-11-21T01:48:27;26.23;;;6.43;;
5285;SDS011;2665;53.112;7.358;2023-11-21T01:50:54;13.63;;;5.80;;
5285;SDS011;2665;53.112;7.358;2023-11-21T01:53:20;19.03;;;6.67;;
5285;SDS011;2665;53.112;7.358;2023-11-21T01:55:46;11.87;;;5.97;;
5285;SDS011;2665;53.112;7.358;2023-11-21T01:58:12;10.83;;;5.67;;
5285;SDS011;2665;53.112;7.358;2023-11-21T02:00:38;12.33;;;5.60;;
5285;SDS011;2665;53.112;7.358;2023-11-21T02:03:04;11.40;;;6.03;;
5285;SDS011;2665;53.112;7.358;2023-11-21T02:05:32;19.17;;;7.13;;
5285;SDS011;2665;53.112;7.358;2023-11-21T02:07:58;16.70;;;5.73;;
5285;SDS011;2665;53.112;7.358;2023-11-21T02:10:24;9.10;;;4.90;;
5285;SDS011;2665;53.112;7.358;2023-11-21T02:12:50;17.87;;;5.83;;
5285;SDS011;2665;53.112;7.358;2023-11-21T02:15:16;16.33;;;6.13;;
5285;SDS011;2665;53.112;7.358;2023-11-21T02:17:46;16.77;;;6.30;;
5285;SDS011;2665;53.112;7.358;2023-11-21T02:20:12;10.37;;;6.30;;
5285;SDS011;2665;53.112;7.358;2023-11-21T02:22:43;11.60;;;5.03;;
5285;SDS011;2665;53.112;7.358;2023-11-21T02:25:09;16.73;;;6.70;;
5285;SDS011;2665;53.112;7.358;2023-11-21T02:27:36;16.00;;;7.57;;
5285;SDS011;2665;53.112;7.358;2023-11-21T02:30:02;16.70;;;5.93;;
5285;SDS011;2665;53.112;7.358;2023-11-21T02:32:30;14.70;;;6.03;;
5285;SDS011;2665;53.112;7.358;2023-11-21T02:34:56;12.47;;;5.60;;
5285;SDS011;2665;53.112;7.358;2023-11-21T02:37:28;16.93;;;5.93;;
5285;SDS011;2665;53.112;7.358;2023-11-21T02:39:55;12.00;;;5.80;;
5285;SDS011;2665;53.112;7.358;2023-11-21T02:42:21;19.93;;;6.10;;
5285;SDS011;2665;53.112;7.358;2023-11-21T02:44:47;10.57;;;7.40;;
5285;SDS011;2665;53.112;7.358;2023-11-21T02:47:13;19.83;;;7.43;;
5285;SDS011;2665;53.112;7.358;2023-11-21T02:49:39;16.30;;;6.07;;
5285;SDS011;2665;53.112;7.358;2023-11-21T02:52:05;17.50;;;6.30;;
5285;SDS011;2665;53.112;7.358;2023-11-21T02:54:31;11.07;;;5.27;;
5285;SDS011;2665;53.112;7.358;2023-11-21T02:57:01;14.87;;;5.47;;
5285;SDS011;2665;53.112;7.358;2023-11-21T02:59:27;13.73;;;5.70;;
5285;SDS011;2665;53.112;7.358;2023-11-21T03:01:53;15.93;;;6.03;;
5285;SDS011;2665;53.112;7.358;2023-11-21T03:04:21;12.57;;;5.50;;
5285;SDS011;2665;53.112;7.358;2023-11-21T03:06:47;17.67;;;5.70;;
5285;SDS011;2665;53.112;7.358;2023-11-21T03:09:13;13.97;;;4.60;;
5285;SDS011;2665;53.112;7.358;2023-11-21T03:11:41;19.47;;;6.17;;
5285;SDS011;2665;53.112;7.358;2023-11-21T03:14:07;10.03;;;5.20;;
5285;SDS011;2665;53.112;7.358;2023-11-21T03:16:33;14.43;;;5.47;;
5285;SDS011;2665;53.112;7.358;2023-11-21T03:18:59;8.30;;;5.13;;
5285;SDS011;2665;53.112;7.358;2023-11-21T03:21:25;10.00;;;5.13;;
5285;SDS011;2665;53.112;7.358;2023-11-21T03:23:51;11.03;;;5.87;;
5285;SDS011;2665;53.112;7.358;2023-11-21T03:26:18;7.60;;;4.57;;
5285;SDS011;2665;53.112;7.358;2023-11-21T03:28:44;18.47;;;5.93;;
5285;SDS011;2665;53.112;7.358;2023-11-21T03:31:11;20.53;;;6.17;;
5285;SDS011;2665;53.112;7.358;2023-11-21T03:33:37;14.33;;;5.20;;
5285;SDS011;2665;53.112;7.358;2023-11-21T03:36:03;10.40;;;5.40;;
5285;SDS011;2665;53.112;7.358;2023-11-21T03:38:29;12.43;;;5.37;;
5285;SDS011;2665;53.112;7.358;2023-11-21T03:40:55;10.13;;;5.50;;
5285;SDS011;2665;53.112;7.358;2023-11-21T03:43:21;8.77;;;4.30;;
5285;SDS011;2665;53.112;7.358;2023-11-21T03:45:47;8.00;;;5.17;;
5285;SDS011;2665;53.112;7.358;2023-11-21T03:48:13;13.17;;;6.70;;
5285;SDS011;2665;53.112;7.358;2023-11-21T03:50:39;12.90;;;6.70;;
5285;SDS011;2665;53.112;7.358;2023-11-21T03:53:05;14.57;;;7.23;;
5285;SDS011;2665;53.112;7.358;2023-11-21T03:55:31;16.00;;;6.27;;
5285;SDS011;2665;53.112;7.358;2023-11-21T03:57:58;13.50;;;6.80;;
5285;SDS011;2665;53.112;7.358;2023-11-21T04:00:24;12.87;;;7.00;;
5285;SDS011;2665;53.112;7.358;2023-11-21T04:02:51;15.30;;;6.00;;
5285;SDS011;2665;53.112;7.358;2023-11-21T04:05:19;16.70;;;7.43;;
5285;SDS011;2665;53.112;7.358;2023-11-21T04:07:45;17.00;;;7.47;;
5285;SDS011;2665;53.112;7.358;2023-11-21T04:10:11;19.63;;;7.83;;
5285;SDS011;2665;53.112;7.358;2023-11-21T04:12:38;19.73;;;7.70;;
5285;SDS011;2665;53.112;7.358;2023-11-21T04:15:04;15.33;;;9.67;;
5285;SDS011;2665;53.112;7.358;2023-11-21T04:17:30;22.43;;;7.60;;
5285;SDS011;2665;53.112;7.358;2023-11-21T04:19:56;17.70;;;6.90;;
5285;SDS011;2665;53.112;7.358;2023-11-21T04:22:22;16.70;;;7.57;;
5285;SDS011;2665;53.112;7.358;2023-11-21T04:24:48;11.53;;;5.77;;
5285;SDS011;2665;53.112;7.358;2023-11-21T04:27:14;14.87;;;5.63;;
5285;SDS011;2665;53.112;7.358;2023-11-21T04:29:41;18.40;;;6.10;;
5285;SDS011;2665;53.112;7.358;2023-11-21T04:32:07;10.83;;;6.00;;
5285;SDS011;2665;53.112;7.358;2023-11-21T04:34:33;15.77;;;6.20;;
5285;SDS011;2665;53.112;7.358;2023-11-21T04:36:59;15.77;;;7.20;;
5285;SDS011;2665;53.112;7.358;2023-11-21T04:39:25;13.17;;;7.50;;
5285;SDS011;2665;53.112;7.358;2023-11-21T04:41:51;15.77;;;6.60;;
5285;SDS011;2665;53.112;7.358;2023-11-21T04:44:17;18.67;;;8.00;;
5285;SDS011;2665;53.112;7.358;2023-11-21T04:46:43;13.30;;;7.00;;
5285;SDS011;2665;53.112;7.358;2023-11-21T04:49:09;18.37;;;7.50;;
5285;SDS011;2665;53.112;7.358;2023-11-21T04:51:36;23.27;;;9.00;;
5285;SDS011;2665;53.112;7.358;2023-11-21T04:54:02;15.13;;;7.80;;
5285;SDS011;2665;53.112;7.358;2023-11-21T04:56:28;19.00;;;8.27;;
5285;SDS011;2665;53.112;7.358;2023-11-21T04:58:54;20.37;;;7.83;;
5285;SDS011;2665;53.112;7.358;2023-11-21T05:01:20;14.37;;;7.17;;
5285;SDS011;2665;53.112;7.358;2023-11-21T05:03:46;13.03;;;8.53;;
5285;SDS011;2665;53.112;7.358;2023-11-21T05:06:12;10.10;;;6.53;;
5285;SDS011;2665;53.112;7.358;2023-11-21T05:08:39;11.60;;;5.73;;
5285;SDS011;2665;53.112;7.358;2023-11-21T05:11:05;12.63;;;5.10;;
5285;SDS011;2665;53.112;7.358;2023-11-21T05:13:33;13.53;;;5.70;;
5285;SDS011;2665;53.112;7.358;2023-11-21T05:15:59;12.33;;;5.33;;
5285;SDS011;2665;53.112;7.358;2023-11-21T05:18:29;13.70;;;4.53;;
5285;SDS011;2665;53.112;7.358;2023-11-21T05:20:55;8.13;;;5.13;;
5285;SDS011;2665;53.112;7.358;2023-11-21T05:23:21;8.30;;;4.73;;
5285;SDS011;2665;53.112;7.358;2023-11-21T05:25:47;9.17;;;4.70;;
5285;SDS011;2665;53.112;7.358;2023-11-21T05:28:13;8.20;;;4.63;;
5285;SDS011;2665;53.112;7.358;2023-11-21T05:30:39;12.80;;;5.50;;
5285;SDS011;2665;53.112;7.358;2023-11-21T05:33:05;7.50;;;4.73;;
5285;SDS011;2665;53.112;7.358;2023-11-21T05:35:31;8.90;;;5.17;;
5285;SDS011;2665;53.112;7.358;2023-11-21T05:37:57;10.37;;;5.70;;
5285;SDS011;2665;53.112;7.358;2023-11-21T05:40:23;12.47;;;5.20;;
5285;SDS011;2665;53.112;7.358;2023-11-21T05:42:51;11.90;;;4.47;;
5285;SDS011;2665;53.112;7.358;2023-11-21T05:45:17;12.03;;;5.63;;
5285;SDS011;2665;53.112;7.358;2023-11-21T05:47:44;15.37;;;6.07;;
5285;SDS011;2665;53.112;7.358;2023-11-21T05:50:11;9.20;;;5.43;;
5285;SDS011;2665;53.112;7.358;2023-11-21T05:52:40;8.90;;;4.73;;
5285;SDS011;2665;53.112;7.358;2023-11-21T05:55:06;9.10;;;5.20;;
5285;SDS011;2665;53.112;7.358;2023-11-21T05:57:35;12.20;;;5.57;;
5285;SDS011;2665;53.112;7.358;2023-11-21T06:00:05;15.80;;;7.40;;
5285;SDS011;2665;53.112;7.358;2023-11-21T06:02:36;11.03;;;5.70;;
5285;SDS011;2665;53.112;7.358;2023-11-21T06:05:03;12.70;;;6.77;;
5285;SDS011;2665;53.112;7.358;2023-11-21T06:07:29;17.17;;;7.70;;
5285;SDS011;2665;53.112;7.358;2023-11-21T06:09:55;15.57;;;6.83;;
5285;SDS011;2665;53.112;7.358;2023-11-21T06:12:22;15.63;;;7.93;;
5285;SDS011;2665;53.112;7.358;2023-11-21T06:14:48;16.83;;;7.27;;
5285;SDS011;2665;53.112;7.358;2023-11-21T06:17:14;16.53;;;7.90;;
5285;SDS011;2665;53.112;7.358;2023-11-21T06:19:40;19.43;;;7.30;;
5285;SDS011;2665;53.112;7.358;2023-11-21T06:22:06;19.50;;;9.50;;
5285;SDS011;2665;53.112;7.358;2023-11-21T06:24:33;18.80;;;8.00;;
5285;SDS011;2665;53.112;7.358;2023-11-21T06:26:59;19.87;;;9.00;;
5285;SDS011;2665;53.112;7.358;2023-11-21T06:29:25;24.30;;;11.50;;
5285;SDS011;2665;53.112;7.358;2023-11-21T06:31:51;26.40;;;10.67;;
5285;SDS011;2665;53.112;7.358;2023-11-21T06:34:20;32.73;;;11.97;;
5285;SDS011;2665;53.112;7.358;2023-11-21T06:36:46;19.80;;;10.43;;
5285;SDS011;2665;53.112;7.358;2023-11-21T06:39:12;25.27;;;10.10;;
5285;SDS011;2665;53.112;7.358;2023-11-21T06:41:40;21.20;;;10.37;;
5285;SDS011;2665;53.112;7.358;2023-11-21T06:44:06;20.77;;;11.23;;
5285;SDS011;2665;53.112;7.358;2023-11-21T06:46:33;26.33;;;10.73;;
5285;SDS011;2665;53.112;7.358;2023-11-21T06:48:59;18.53;;;8.67;;
5285;SDS011;2665;53.112;7.358;2023-11-21T06:51:25;16.83;;;9.13;;
5285;SDS011;2665;53.112;7.358;2023-11-21T06:53:51;14.80;;;8.67;;
5285;SDS011;2665;53.112;7.358;2023-11-21T06:56:18;20.03;;;9.67;;
5285;SDS011;2665;53.112;7.358;2023-11-21T06:58:47;18.60;;;8.40;;
5285;SDS011;2665;53.112;7.358;2023-11-21T07:01:14;21.60;;;11.20;;
5285;SDS011;2665;53.112;7.358;2023-11-21T07:03:40;20.37;;;11.50;;
5285;SDS011;2665;53.112;7.358;2023-11-21T07:06:07;22.23;;;11.27;;
5285;SDS011;2665;53.112;7.358;2023-11-21T07:08:33;20.33;;;10.87;;
5285;SDS011;2665;53.112;7.358;2023-11-21T07:10:59;18.50;;;10.63;;
5285;SDS011;2665;53.112;7.358;2023-11-21T07:13:25;20.23;;;10.43;;
5285;SDS011;2665;53.112;7.358;2023-11-21T07:15:51;14.60;;;10.00;;
5285;SDS011;2665;53.112;7.358;2023-11-21T07:18:17;15.20;;;9.80;;
5285;SDS011;2665;53.112;7.358;2023-11-21T07:20:43;13.80;;;8.47;;
5285;SDS011;2665;53.112;7.358;2023-11-21T07:23:09;18.63;;;9.10;;
5285;SDS011;2665;53.112;7.358;2023-11-21T07:25:35;13.30;;;8.10;;
5285;SDS011;2665;53.112;7.358;2023-11-21T07:28:01;14.77;;;9.07;;
5285;SDS011;2665;53.112;7.358;2023-11-21T07:30:28;13.20;;;8.33;;
5285;SDS011;2665;53.112;7.358;2023-11-21T07:32:54;16.33;;;8.87;;
5285;SDS011;2665;53.112;7.358;2023-11-21T07:35:20;17.47;;;9.83;;
5285;SDS011;2665;53.112;7.358;2023-11-21T07:37:46;16.10;;;9.30;;
5285;SDS011;2665;53.112;7.358;2023-11-21T07:40:13;16.20;;;9.30;;
5285;SDS011;2665;53.112;7.358;2023-11-21T07:42:39;21.07;;;10.00;;
5285;SDS011;2665;53.112;7.358;2023-11-21T07:45:07;16.77;;;9.07;;
5285;SDS011;2665;53.112;7.358;2023-11-21T07:47:34;15.20;;;8.73;;
5285;SDS011;2665;53.112;7.358;2023-11-21T07:50:00;14.90;;;8.70;;
5285;SDS011;2665;53.112;7.358;2023-11-21T07:52:27;16.90;;;8.97;;
5285;SDS011;2665;53.112;7.358;2023-11-21T07:54:53;14.70;;;9.20;;
5285;SDS011;2665;53.112;7.358;2023-11-21T07:57:19;15.77;;;7.77;;
5285;SDS011;2665;53.112;7.358;2023-11-21T07:59:45;19.13;;;8.83;;
5285;SDS011;2665;53.112;7.358;2023-11-21T08:02:11;16.50;;;8.63;;
5285;SDS011;2665;53.112;7.358;2023-11-21T08:04:37;12.50;;;8.17;;
5285;SDS011;2665;53.112;7.358;2023-11-21T08:07:03;19.40;;;9.20;;
5285;SDS011;2665;53.112;7.358;2023-11-21T08:09:30;14.50;;;8.00;;
5285;SDS011;2665;53.112;7.358;2023-11-21T08:11:55;20.70;;;8.40;;
5285;SDS011;2665;53.112;7.358;2023-11-21T08:14:22;17.10;;;9.07;;
5285;SDS011;2665;53.112;7.358;2023-11-21T08:16:50;16.07;;;8.97;;
5285;SDS011;2665;53.112;7.358;2023-11-21T08:19:17;16.13;;;9.33;;
5285;SDS011;2665;53.112;7.358;2023-11-21T08:21:43;16.93;;;8.43;;
5285;SDS011;2665;53.112;7.358;2023-11-21T08:24:11;11.53;;;6.83;;
5285;SDS011;2665;53.112;7.358;2023-11-21T08:26:37;12.77;;;6.37;;
5285;SDS011;2665;53.112;7.358;2023-11-21T08:29:03;13.00;;;7.13;;
5285;SDS011;2665;53.112;7.358;2023-11-21T08:31:31;14.60;;;8.97;;
5285;SDS011;2665;53.112;7.358;2023-11-21T08:33:58;11.20;;;6.10;;
5285;SDS011;2665;53.112;7.358;2023-11-21T08:36:25;11.00;;;7.33;;
5285;SDS011;2665;53.112;7.358;2023-11-21T08:38:51;12.40;;;7.20;;
5285;SDS011;2665;53.112;7.358;2023-11-21T08:41:17;12.90;;;7.30;;
5285;SDS011;2665;53.112;7.358;2023-11-21T08:43:47;12.33;;;6.57;;
5285;SDS011;2665;53.112;7.358;2023-11-21T08:46:13;11.43;;;7.00;;
5285;SDS011;2665;53.112;7.358;2023-11-21T08:48:40;11.53;;;6.73;;
5285;SDS011;2665;53.112;7.358;2023-11-21T08:51:06;12.57;;;5.80;;
5285;SDS011;2665;53.112;7.358;2023-11-21T08:53:32;8.50;;;5.87;;
5285;SDS011;2665;53.112;7.358;2023-11-21T08:55:58;8.63;;;5.53;;
5285;SDS011;2665;53.112;7.358;2023-11-21T08:58:25;8.70;;;5.73;;
5285;SDS011;2665;53.112;7.358;2023-11-21T09:00:51;8.10;;;5.50;;
5285;SDS011;2665;53.112;7.358;2023-11-21T09:03:17;13.93;;;6.37;;
5285;SDS011;2665;53.112;7.358;2023-11-21T09:05:43;9.80;;;5.60;;
5285;SDS011;2665;53.112;7.358;2023-11-21T09:08:09;10.33;;;5.83;;
5285;SDS011;2665;53.112;7.358;2023-11-21T09:10:35;9.67;;;5.90;;
5285;SDS011;2665;53.112;7.358;2023-11-21T09:13:02;7.43;;;4.70;;
5285;SDS011;2665;53.112;7.358;2023-11-21T09:15:28;6.70;;;5.00;;
5285;SDS011;2665;53.112;7.358;2023-11-21T09:17:54;9.30;;;4.97;;
5285;SDS011;2665;53.112;7.358;2023-11-21T09:20:21;7.00;;;5.50;;
5285;SDS011;2665;53.112;7.358;2023-11-21T09:22:48;10.30;;;5.47;;
5285;SDS011;2665;53.112;7.358;2023-11-21T09:25:14;6.63;;;4.50;;
5285;SDS011;2665;53.112;7.358;2023-11-21T09:27:42;7.87;;;4.93;;
5285;SDS011;2665;53.112;7.358;2023-11-21T09:30:08;9.77;;;4.90;;
5285;SDS011;2665;53.112;7.358;2023-11-21T09:32:35;6.70;;;4.30;;
5285;SDS011;2665;53.112;7.358;2023-11-21T09:35:02;6.77;;;4.43;;
5285;SDS011;2665;53.112;7.358;2023-11-21T09:37:28;8.40;;;5.47;;
5285;SDS011;2665;53.112;7.358;2023-11-21T09:39:54;7.93;;;4.63;;
5285;SDS011;2665;53.112;7.358;2023-11-21T09:42:23;7.93;;;5.00;;
5285;SDS011;2665;53.112;7.358;2023-11-21T09:44:54;5.60;;;4.40;;
5285;SDS011;2665;53.112;7.358;2023-11-21T09:47:24;9.50;;;5.10;;
5285;SDS011;2665;53.112;7.358;2023-11-21T09:49:50;7.57;;;5.13;;
5285;SDS011;2665;53.112;7.358;2023-11-21T09:55:06;7.37;;;5.23;;
5285;SDS011;2665;53.112;7.358;2023-11-21T09:57:33;7.60;;;4.70;;
5285;SDS011;2665;53.112;7.358;2023-11-21T10:00:00;6.60;;;4.27;;
5285;SDS011;2665;53.112;7.358;2023-11-21T10:02:30;6.20;;;4.40;;
5285;SDS011;2665;53.112;7.358;2023-11-21T10:05:01;10.63;;;4.83;;
5285;SDS011;2665;53.112;7.358;2023-11-21T10:07:27;8.73;;;5.30;;
5285;SDS011;2665;53.112;7.358;2023-11-21T10:09:54;6.23;;;4.03;;
5285;SDS011;2665;53.112;7.358;2023-11-21T10:12:20;7.30;;;5.30;;
5285;SDS011;2665;53.112;7.358;2023-11-21T10:14:48;7.20;;;4.50;;
5285;SDS011;2665;53.112;7.358;2023-11-21T10:17:15;8.07;;;4.60;;
5285;SDS011;2665;53.112;7.358;2023-11-21T10:19:43;6.20;;;4.30;;
5285;SDS011;2665;53.112;7.358;2023-11-21T10:22:10;6.87;;;4.00;;
5285;SDS011;2665;53.112;7.358;2023-11-21T10:24:36;8.13;;;5.03;;
5285;SDS011;2665;53.112;7.358;2023-11-21T10:27:03;7.10;;;4.57;;
5285;SDS011;2665;53.112;7.358;2023-11-21T10:29:29;7.70;;;4.87;;
5285;SDS011;2665;53.112;7.358;2023-11-21T10:31:55;16.37;;;5.10;;
5285;SDS011;2665;53.112;7.358;2023-11-21T10:34:23;10.30;;;4.60;;
5285;SDS011;2665;53.112;7.358;2023-11-21T10:36:52;7.27;;;3.93;;
5285;SDS011;2665;53.112;7.358;2023-11-21T10:39:21;6.63;;;4.53;;
5285;SDS011;2665;53.112;7.358;2023-11-21T10:41:49;6.80;;;4.33;;
5285;SDS011;2665;53.112;7.358;2023-11-21T10:44:19;6.57;;;4.13;;
5285;SDS011;2665;53.112;7.358;2023-11-21T10:46:52;5.70;;;3.83;;
5285;SDS011;2665;53.112;7.358;2023-11-21T10:49:22;6.13;;;4.20;;
5285;SDS011;2665;53.112;7.358;2023-11-21T10:51:49;9.73;;;4.70;;
5285;SDS011;2665;53.112;7.358;2023-11-21T10:54:18;5.83;;;3.73;;
5285;SDS011;2665;53.112;7.358;2023-11-21T10:56:45;7.60;;;4.60;;
5285;SDS011;2665;53.112;7.358;2023-11-21T10:59:12;5.50;;;3.97;;
5285;SDS011;2665;53.112;7.358;2023-11-21T11:01:41;8.10;;;4.27;;
5285;SDS011;2665;53.112;7.358;2023-11-21T11:04:08;6.37;;;4.00;;
5285;SDS011;2665;53.112;7.358;2023-11-21T11:06:40;5.60;;;4.00;;
5285;SDS011;2665;53.112;7.358;2023-11-21T11:09:06;7.67;;;4.57;;
5285;SDS011;2665;53.112;7.358;2023-11-21T11:11:33;5.90;;;4.60;;
5285;SDS011;2665;53.112;7.358;2023-11-21T11:14:03;7.43;;;3.53;;
5285;SDS011;2665;53.112;7.358;2023-11-21T11:16:30;7.43;;;4.73;;
5285;SDS011;2665;53.112;7.358;2023-11-21T11:18:56;6.50;;;3.83;;
5285;SDS011;2665;53.112;7.358;2023-11-21T11:21:27;6.63;;;3.47;;
5285;SDS011;2665;53.112;7.358;2023-11-21T11:34:48;7.33;;;3.80;;
5285;SDS011;2665;53.112;7.358;2023-11-21T11:37:18;6.00;;;3.67;;
5285;SDS011;2665;53.112;7.358;2023-11-21T11:39:44;7.30;;;3.87;;
5285;SDS011;2665;53.112;7.358;2023-11-21T11:42:14;6.03;;;4.00;;
5285;SDS011;2665;53.112;7.358;2023-11-21T11:47:16;5.43;;;3.60;;
5285;SDS011;2665;53.112;7.358;2023-11-21T11:52:47;5.60;;;3.53;;
5285;SDS011;2665;53.112;7.358;2023-11-21T11:55:14;4.97;;;3.73;;
5285;SDS011;2665;53.112;7.358;2023-11-21T11:57:44;6.83;;;3.67;;
5285;SDS011;2665;53.112;7.358;2023-11-21T12:00:18;6.10;;;3.73;;
5285;SDS011;2665;53.112;7.358;2023-11-21T12:02:49;5.50;;;3.37;;
5285;SDS011;2665;53.112;7.358;2023-11-21T12:05:17;5.23;;;3.70;;
5285;SDS011;2665;53.112;7.358;2023-11-21T12:07:53;5.97;;;3.50;;
5285;SDS011;2665;53.112;7.358;2023-11-21T12:10:20;6.00;;;4.63;;
5285;SDS011;2665;53.112;7.358;2023-11-21T12:12:57;7.33;;;4.17;;
5285;SDS011;2665;53.112;7.358;2023-11-21T12:15:23;11.63;;;4.47;;
5285;SDS011;2665;53.112;7.358;2023-11-21T12:17:56;5.60;;;4.10;;
5285;SDS011;2665;53.112;7.358;2023-11-21T12:20:26;5.10;;;3.90;;
5285;SDS011;2665;53.112;7.358;2023-11-21T12:22:56;5.20;;;3.97;;
5285;SDS011;2665;53.112;7.358;2023-11-21T12:25:28;8.30;;;3.83;;
5285;SDS011;2665;53.112;7.358;2023-11-21T12:27:57;5.03;;;3.03;;
5285;SDS011;2665;53.112;7.358;2023-11-21T12:30:24;6.13;;;4.27;;
5285;SDS011;2665;53.112;7.358;2023-11-21T12:32:53;6.03;;;4.20;;
5285;SDS011;2665;53.112;7.358;2023-11-21T12:35:21;8.30;;;3.90;;
5285;SDS011;2665;53.112;7.358;2023-11-21T12:37:48;5.33;;;4.20;;
5285;SDS011;2665;53.112;7.358;2023-11-21T12:40:14;4.90;;;3.70;;
5285;SDS011;2665;53.112;7.358;2023-11-21T12:42:42;4.63;;;2.90;;
5285;SDS011;2665;53.112;7.358;2023-11-21T12:45:09;5.97;;;4.30;;
5285;SDS011;2665;53.112;7.358;2023-11-21T12:47:42;8.93;;;3.57;;
5285;SDS011;2665;53.112;7.358;2023-11-21T12:50:09;5.23;;;3.80;;
5285;SDS011;2665;53.112;7.358;2023-11-21T12:52:45;4.60;;;3.33;;
5285;SDS011;2665;53.112;7.358;2023-11-21T12:55:18;5.17;;;3.43;;
5285;SDS011;2665;53.112;7.358;2023-11-21T12:57:47;5.23;;;3.80;;
5285;SDS011;2665;53.112;7.358;2023-11-21T13:00:15;6.53;;;3.80;;
5285;SDS011;2665;53.112;7.358;2023-11-21T13:02:52;8.10;;;3.90;;
5285;SDS011;2665;53.112;7.358;2023-11-21T13:07:51;4.33;;;3.40;;
5285;SDS011;2665;53.112;7.358;2023-11-21T13:10:19;4.70;;;3.20;;
5285;SDS011;2665;53.112;7.358;2023-11-21T13:12:47;4.70;;;3.30;;
5285;SDS011;2665;53.112;7.358;2023-11-21T13:15:16;9.43;;;4.23;;
5285;SDS011;2665;53.112;7.358;2023-11-21T13:17:42;4.23;;;2.80;;
5285;SDS011;2665;53.112;7.358;2023-11-21T13:20:10;5.67;;;3.37;;
5285;SDS011;2665;53.112;7.358;2023-11-21T13:22:44;6.27;;;2.73;;
5285;SDS011;2665;53.112;7.358;2023-11-21T13:25:10;4.80;;;2.83;;
5285;SDS011;2665;53.112;7.358;2023-11-21T13:27:36;4.50;;;3.57;;
5285;SDS011;2665;53.112;7.358;2023-11-21T13:30:03;4.80;;;3.70;;
5285;SDS011;2665;53.112;7.358;2023-11-21T13:32:29;4.77;;;3.10;;
5285;SDS011;2665;53.112;7.358;2023-11-21T13:34:57;5.60;;;3.30;;
5285;SDS011;2665;53.112;7.358;2023-11-21T13:37:24;4.03;;;2.93;;
5285;SDS011;2665;53.112;7.358;2023-11-21T13:39:53;4.80;;;2.70;;
5285;SDS011;2665;53.112;7.358;2023-11-21T13:42:20;5.27;;;2.67;;
5285;SDS011;2665;53.112;7.358;2023-11-21T13:44:55;5.40;;;2.40;;
5285;SDS011;2665;53.112;7.358;2023-11-21T13:47:21;5.27;;;3.00;;
5285;SDS011;2665;53.112;7.358;2023-11-21T13:49:50;3.93;;;2.67;;
5285;SDS011;2665;53.112;7.358;2023-11-21T13:52:17;4.07;;;2.77;;
5285;SDS011;2665;53.112;7.358;2023-11-21T13:54:46;4.17;;;2.67;;
5285;SDS011;2665;53.112;7.358;2023-11-21T13:57:12;7.63;;;2.93;;
5285;SDS011;2665;53.112;7.358;2023-11-21T13:59:38;5.70;;;3.70;;
5285;SDS011;2665;53.112;7.358;2023-11-21T14:02:04;4.53;;;2.47;;
5285;SDS011;2665;53.112;7.358;2023-11-21T14:04:43;4.90;;;2.80;;
5285;SDS011;2665;53.112;7.358;2023-11-21T14:07:21;5.00;;;3.10;;
5285;SDS011;2665;53.112;7.358;2023-11-21T14:10:03;3.73;;;2.70;;
5285;SDS011;2665;53.112;7.358;2023-11-21T14:12:32;5.07;;;2.70;;
5285;SDS011;2665;53.112;7.358;2023-11-21T14:15:01;4.80;;;2.93;;
5285;SDS011;2665;53.112;7.358;2023-11-21T14:17:32;4.80;;;3.20;;
5285;SDS011;2665;53.112;7.358;2023-11-21T14:19:59;3.93;;;2.60;;
5285;SDS011;2665;53.112;7.358;2023-11-21T14:22:26;4.20;;;2.90;;
5285;SDS011;2665;53.112;7.358;2023-11-21T14:24:52;4.43;;;3.07;;
5285;SDS011;2665;53.112;7.358;2023-11-21T14:27:20;5.47;;;2.57;;
5285;SDS011;2665;53.112;7.358;2023-11-21T14:29:46;6.73;;;3.30;;
5285;SDS011;2665;53.112;7.358;2023-11-21T14:32:13;3.10;;;2.60;;
5285;SDS011;2665;53.112;7.358;2023-11-21T14:34:40;3.07;;;2.17;;
5285;SDS011;2665;53.112;7.358;2023-11-21T14:37:10;3.40;;;2.07;;
5285;SDS011;2665;53.112;7.358;2023-11-21T14:39:38;5.20;;;2.50;;
5285;SDS011;2665;53.112;7.358;2023-11-21T14:42:09;3.83;;;2.67;;
5285;SDS011;2665;53.112;7.358;2023-11-21T14:44:35;2.87;;;1.97;;
5285;SDS011;2665;53.112;7.358;2023-11-21T14:47:06;4.10;;;2.53;;
5285;SDS011;2665;53.112;7.358;2023-11-21T14:49:37;3.47;;;2.67;;
5285;SDS011;2665;53.112;7.358;2023-11-21T14:52:17;4.27;;;3.23;;
5285;SDS011;2665;53.112;7.358;2023-11-21T14:55:02;4.60;;;2.93;;
5285;SDS011;2665;53.112;7.358;2023-11-21T14:57:48;4.63;;;3.60;;
5285;SDS011;2665;53.112;7.358;2023-11-21T15:00:17;3.90;;;2.77;;
5285;SDS011;2665;53.112;7.358;2023-11-21T15:02:58;3.97;;;3.17;;
5285;SDS011;2665;53.112;7.358;2023-11-21T15:05:25;4.80;;;2.60;;
5285;SDS011;2665;53.112;7.358;2023-11-21T15:07:52;7.80;;;3.37;;
5285;SDS011;2665;53.112;7.358;2023-11-21T15:10:33;4.23;;;2.90;;
5285;SDS011;2665;53.112;7.358;2023-11-21T15:13:11;4.17;;;2.10;;
5285;SDS011;2665;53.112;7.358;2023-11-21T15:15:37;5.90;;;2.73;;
5285;SDS011;2665;53.112;7.358;2023-11-21T15:18:04;5.80;;;2.00;;
5285;SDS011;2665;53.112;7.358;2023-11-21T15:20:31;3.20;;;2.20;;
5285;SDS011;2665;53.112;7.358;2023-11-21T15:22:57;4.60;;;2.57;;
5285;SDS011;2665;53.112;7.358;2023-11-21T15:25:23;4.43;;;2.67;;
5285;SDS011;2665;53.112;7.358;2023-11-21T15:27:49;4.70;;;2.77;;
5285;SDS011;2665;53.112;7.358;2023-11-21T15:30:18;5.70;;;3.17;;